Terminal Aerodrome Forecast
Issued by NWS Brownsville, TX

Home | Current Version | Previous Version | Text Only | Print | Product List | Glossary On
Versions: 1 2 3 4 5 6 7 8 9 10 11 12 13 14 15 16 17 18 19
167
FTUS44 KBRO 141720
TAFHRL
TAF
KHRL 141720Z 1418/1518 17022G29KT P6SM FEW045
     FM150100 16013G20KT P6SM FEW250
     FM150700 15008KT P6SM SCT250
     FM151000 16007KT 5SM BR OVC012
     FM151500 17013KT P6SM BKN025=

USA.gov is the U.S. government's official web portal to all federal, state and local government web resources and services.